Terminal Aerodrome Forecast
Issued by NWS Portland, ME

Home | Current Version | Previous Version | Text Only | Print | Product List | Glossary On
Versions: 1 2 3 4 5 6 7 8 9 10 11 12 13 14 15 16 17 18 19 20 21 22 23 24
000
FTUS41 KGYX 301725 AAA
TAFCON
TAF AMD
KCON 301725Z 3017/0118 11006KT P6SM SCT035 BKN090
     FM010200 00000KT P6SM OVC050
     FM010600 00000KT P6SM OVC025
     FM011100 00000KT P6SM OVC008
     FM011600 00000KT 0SM -DZ FG BKN001=

USA.gov is the U.S. government's official web portal to all federal, state and local government web resources and services.